Republica Dominicana

Vuelos de Bajo Nivel

VUELOS DE BAJO NIVEL DESDE SUPERFICIE HASTA 24,000 PIES.

 

  VALIDO DESDE 221200Z ...…………………….…………………HASTA 230000ZSALIDA  Y  PUESTA  DEL  SOL  06:22 / 19:01

SANTO DOMINGO FIR SCT015. OVR ISLANDS TIL 12Z INTERIOR SXNS OCNL VIS 3-5SM BR HZ.  BECMG 1618 SCT020 SCT-BKN070 TOP 160. SCT TSRA. 20Z ISOL TSRA.OTLK...VFR TSRA.

 

5,000 FT.

10,000 FT.

18,000 FT.

24,000 FT.

MDSD

1110KT+20ºC

0715KT+11ºC

1210KT-05ºC

1510KT-16ºC

MTPP

1110KT+20ºC

0715KT+11ºC

1210KT-05ºC

1510KT-16ºC

TJSJ

1320KT+18ºC

1320KT+09ºC

1215KT-04ºC

1520KT-15ºC


TAF MDPP 221000Z 2212/2312
09015KT 9999 FEW020=

TAF MDST 221000Z 2212/2312 11005KT 9999 FEW017 PROB30 2212/2218 7000 -RA SCT016 BKN070= 

TAF MDPC 221000Z 2212/2312 00000KT 9999 SCT018 SCT300 BECMG 2214/2216 09010KT=

TAF MDBH 221000Z 2212/2312 13016KT 9999 FEW016CB SCT018 SCT080 PROB40 TEMPO 2218/2300 6000 TSRA FEW014CB BKN016 BKN070 =

TAF MDJB 221000Z 2212/2312 00000KT 9999 SCT018 BECMG 2212/2214 03004KT PROB40 TEMPO 2219/2301 5000 TSRA FEW014CB BKN016 OVC070=

TAF MDSD 221000Z 2212/2312 05004KT 9999 FEW018CB SCT020 PROB30 TEMPO 2212/2217 7000 -RA FEW016CB BKN018 BECMG 2215/2217 13011KT PROB40 TEMPO 2219/2201 6000 TSRA FEW014CB BKN016 BKN070=

TAF MDLR 221000Z 2212/2312 00000KT 9999 SCT018 PROB30 2213/2219 7000 -RA BKN018 BECMG 2213/2215 12010KT=

TAF MDCY 221000Z 2212/2312 00000KT 9999 FEW018 BECMG 2214/2216 09010KT PROB30 2215/2221 8000 –TSRA FEW016CB BKN017=

TAF KMIA 220936Z 2210/2312 VRB03KT P6SM VCSH FEW025 FEW035 SCT250 FM221600 07010KT P6SM VCTS SCT025CB BKN050

FM222100 07008KT P6SM SCT025 SCT250 FM230100 06005KT P6SM FEW025 FEW250

TAF KJFK 220852Z 2209/2312 24008KT P6SM FEW020 BKN150 BKN250 TEMPO 2209/2212 BKN020

FM221200 25007KT P6SM SCT150 BKN250 FM221700 23010KT P6SM FEW040 SCT150 BKN250 FM221900 19011G16KT P6SM VCSH FEW040 SCT070 BKN150 FM230000 22010KT P6SM VCSH BKN060 BKN100 PROB30 2300/2304 3SM -TSRA OVC050CB FM230500 32008KT P6SM VCSH BKN060 BKN150

TAF TJSJ 220538Z 2206/2306 VRB05KT P6SM VCSH SCT025 SCT080 TEMPO 2206/2207 3SM +SHRA BKN025 FM221300 08010KT P6SM SCT030 FM221600 09014G21KT P6SM VCTS SCT030CB BKN060 FM222300 11007KT P6SM VCSH FEW026 SCT060

TAF MUHA 220500Z 2206/2306 09003KT 9000 FEW020CB BKN180 BECMG 2217/2218 36010KT TEMPO 2220/2224 VRB10KT 3000 TSRA SCT018CB BKN030

TAF MUGM 2207/2307 36006KT 9999 FEW030 BKN280 QNH2996INS FM221000 03008KT 9999 FEW030 FEW120 BKN280 QNH2995INS

BECMG 2214/2216 15008KT 9999 FEW030 FEW120 SCT280 QNH2995INS FM222000 17010KT 9999 VCTS FEW030CB SCT120 BKN280 QNH2993INS TEMPO 2220/2301 VRB15G25KT 8000 -TSRA BKN025CB BKN080 OVC150 BECMG 2301/2303 10008KT 9999 NSW FEW030 SCT100 SCT280 QNH2990INS T25/2211Z T32/2218Z FN00216

TAF TNCC 220530Z 2206/2306 11012KT 9999 SCT018

TAF MKJP 220515Z 2206/2306 36004KT 9999 FEW022 BECMG 2213/2215 14020KT FEW022 FEW024CB PROB30 TEMPO 2216/2224 TS SCT022CB BECMG 2302/2304 35005KT

ELABORADO POR HATY MOTA  22 DE AGOSTO DE 2019.-




Tamaño letra

Contraste

Otros